createdAt,value
2022-12-25T00:01:03.949Z,62.95
2022-12-25T00:03:31.129Z,62.70
2022-12-25T00:05:59.224Z,60.88
2022-12-25T00:08:25.725Z,60.80
2022-12-25T00:11:06.700Z,61.45
2022-12-25T00:13:33.635Z,57.15
2022-12-25T00:16:00.317Z,65.55
2022-12-25T00:18:27.209Z,67.25
2022-12-25T00:21:02.062Z,69.57
2022-12-25T00:23:28.807Z,62.92
2022-12-25T00:25:55.613Z,59.95
2022-12-25T00:28:23.159Z,57.35
2022-12-25T00:30:50.707Z,56.13
2022-12-25T00:33:17.618Z,61.85
2022-12-25T00:35:44.146Z,55.83
2022-12-25T00:38:10.728Z,58.83
2022-12-25T00:40:44.284Z,54.97
2022-12-25T00:43:11.073Z,62.85
2022-12-25T00:45:37.635Z,71.00
2022-12-25T00:48:04.313Z,68.45
2022-12-25T00:50:30.821Z,62.00
2022-12-25T00:52:57.237Z,59.80
2022-12-25T00:55:23.656Z,57.65
2022-12-25T00:57:50.066Z,61.10
2022-12-25T01:00:16.677Z,54.42
2022-12-25T01:02:43.179Z,57.53
2022-12-25T01:05:09.851Z,58.67
2022-12-25T01:07:36.240Z,58.28
2022-12-25T01:10:21.197Z,53.72
2022-12-25T01:12:47.612Z,53.60
2022-12-25T01:15:14.503Z,53.88
2022-12-25T01:17:42.472Z,56.55
2022-12-25T01:20:09.891Z,57.45
2022-12-25T01:22:36.417Z,60.42
2022-12-25T01:25:03.096Z,53.85
2022-12-25T01:27:29.497Z,56.58
2022-12-25T01:29:55.883Z,55.38
2022-12-25T01:32:22.342Z,56.88
2022-12-25T01:34:53.878Z,60.22
2022-12-25T01:37:24.651Z,51.95
2022-12-25T01:39:51.293Z,55.08
2022-12-25T01:42:19.953Z,57.00
2022-12-25T01:44:46.289Z,56.47
2022-12-25T01:47:13.819Z,59.88
2022-12-25T01:49:43.003Z,53.90
2022-12-25T01:52:27.621Z,53.28
2022-12-25T01:54:58.603Z,52.80
2022-12-25T01:57:28.744Z,56.80
2022-12-25T01:59:57.653Z,50.20
2022-12-25T02:02:24.838Z,55.92
2022-12-25T02:05:01.282Z,50.30
2022-12-25T02:07:29.534Z,51.08
2022-12-25T02:09:55.924Z,56.05
2022-12-25T02:12:25.953Z,47.25
2022-12-25T02:15:04.671Z,48.30
2022-12-25T02:17:43.975Z,53.10
2022-12-25T02:20:39.856Z,53.38
2022-12-25T02:23:29.555Z,52.50
2022-12-25T02:26:17.356Z,54.78
2022-12-25T02:29:11.476Z,47.50
2022-12-25T02:31:54.215Z,52.95
2022-12-25T02:34:32.669Z,51.00
2022-12-25T02:37:06.690Z,52.72
2022-12-25T02:39:57.736Z,54.10
2022-12-25T02:42:58.093Z,47.85
2022-12-25T02:45:54.565Z,50.17
2022-12-25T02:48:43.043Z,54.63
2022-12-25T02:51:32.228Z,52.72
2022-12-25T02:54:20.007Z,53.55
2022-12-25T02:57:07.177Z,50.65
2022-12-25T02:59:56.981Z,51.20
2022-12-25T03:02:43.951Z,53.00
2022-12-25T03:05:33.812Z,49.40
2022-12-25T03:08:04.943Z,49.65
2022-12-25T03:10:52.475Z,49.20
2022-12-25T03:13:21.854Z,50.97
2022-12-25T03:16:08.081Z,48.40
2022-12-25T03:18:35.292Z,49.80
2022-12-25T03:21:21.071Z,49.17
2022-12-25T03:24:12.721Z,51.88
2022-12-25T03:29:47.383Z,49.58
2022-12-25T03:32:28.194Z,45.67
2022-12-25T03:35:25.666Z,49.22
2022-12-25T03:38:32.043Z,49.97
2022-12-25T03:41:32.227Z,52.72
2022-12-25T03:44:42.302Z,49.70
2022-12-25T03:47:36.576Z,45.17
2022-12-25T03:50:46.389Z,49.25
2022-12-25T03:53:37.626Z,48.95
2022-12-25T03:56:23.877Z,47.42
2022-12-25T03:59:11.641Z,49.72
2022-12-25T04:01:56.521Z,46.70
2022-12-25T04:04:41.733Z,54.42
2022-12-25T04:07:26.326Z,51.63
2022-12-25T04:10:11.071Z,52.25
2022-12-25T04:12:55.863Z,49.90
2022-12-25T04:15:41.135Z,48.42
2022-12-25T04:18:26.302Z,46.38
2022-12-25T04:21:10.916Z,49.05
2022-12-25T04:23:56.274Z,47.22
2022-12-25T04:26:41.128Z,50.15
2022-12-25T04:29:26.191Z,46.13
2022-12-25T04:32:10.904Z,49.28
2022-12-25T04:34:55.689Z,50.38
2022-12-25T04:37:22.090Z,50.45
2022-12-25T04:39:48.539Z,48.03
2022-12-25T04:42:16.001Z,44.72
2022-12-25T04:44:42.421Z,49.30
2022-12-25T04:47:11.472Z,47.97
2022-12-25T04:49:38.635Z,46.90
2022-12-25T04:52:05.139Z,47.35
2022-12-25T04:54:31.596Z,46.92
2022-12-25T04:56:58.029Z,45.08
2022-12-25T04:59:24.503Z,46.30
2022-12-25T05:01:51.074Z,49.42
2022-12-25T05:04:17.546Z,49.95
2022-12-25T05:06:43.966Z,47.42
2022-12-25T05:09:10.673Z,45.67
2022-12-25T05:11:37.150Z,47.65
2022-12-25T05:14:03.588Z,51.67
2022-12-25T05:16:30.111Z,48.28
2022-12-25T05:18:57.483Z,47.88
2022-12-25T05:21:23.911Z,46.15
2022-12-25T05:23:53.606Z,47.95
2022-12-25T05:26:23.950Z,42.92
2022-12-25T05:28:50.962Z,48.25
2022-12-25T05:31:18.223Z,53.42
2022-12-25T05:33:44.683Z,48.40
2022-12-25T05:36:12.741Z,52.47
2022-12-25T05:38:39.229Z,45.80
2022-12-25T05:41:06.010Z,47.53
2022-12-25T05:43:32.616Z,48.60
2022-12-25T05:46:04.860Z,48.65
2022-12-25T05:48:31.359Z,49.13
2022-12-25T05:50:57.771Z,46.53
2022-12-25T05:53:24.220Z,47.00
2022-12-25T05:55:50.652Z,46.40
2022-12-25T05:58:17.132Z,47.70
2022-12-25T06:00:44.142Z,48.55
2022-12-25T06:03:10.745Z,46.85
2022-12-25T06:05:38.959Z,49.53
2022-12-25T06:08:06.075Z,50.05
2022-12-25T06:10:32.479Z,50.95
2022-12-25T06:12:58.927Z,47.53
2022-12-25T06:15:25.304Z,50.83
2022-12-25T06:17:51.729Z,46.67
2022-12-25T06:20:18.387Z,49.28
2022-12-25T06:22:44.849Z,49.75
2022-12-25T06:25:11.471Z,51.97
2022-12-25T06:27:37.913Z,51.17
2022-12-25T06:30:05.424Z,47.13
2022-12-25T06:32:31.821Z,47.67
2022-12-25T06:34:58.230Z,47.13
2022-12-25T06:37:24.677Z,50.00
2022-12-25T06:39:51.080Z,47.80
2022-12-25T06:42:17.468Z,49.30
2022-12-25T06:44:44.681Z,47.97
2022-12-25T06:47:11.104Z,47.53
2022-12-25T06:49:37.533Z,46.03
2022-12-25T06:52:03.991Z,47.65
2022-12-25T06:54:30.380Z,44.22
2022-12-25T06:56:56.961Z,47.10
2022-12-25T06:59:23.464Z,45.80
2022-12-25T07:01:53.504Z,45.92
2022-12-25T07:04:22.857Z,44.15
2022-12-25T07:06:49.293Z,43.03
2022-12-25T07:09:15.716Z,47.05
2022-12-25T07:11:42.137Z,44.58
2022-12-25T07:14:23.384Z,47.50
2022-12-25T07:16:53.609Z,43.22
2022-12-25T07:19:20.079Z,45.78
2022-12-25T07:21:47.261Z,46.78
2022-12-25T07:24:56.387Z,48.58
2022-12-25T07:27:28.290Z,48.40
2022-12-25T07:29:54.754Z,50.67
2022-12-25T07:32:21.222Z,51.45
2022-12-25T07:34:47.652Z,49.97
2022-12-25T07:37:14.049Z,48.97
2022-12-25T07:39:40.732Z,51.30
2022-12-25T07:42:07.456Z,47.53
2022-12-25T07:44:33.857Z,44.10
2022-12-25T07:47:00.341Z,46.17
2022-12-25T07:49:26.768Z,45.75
2022-12-25T07:51:53.152Z,44.40
2022-12-25T07:54:22.765Z,48.00
2022-12-25T07:56:56.059Z,47.25
2022-12-25T07:59:22.625Z,45.50
2022-12-25T08:01:50.378Z,46.45
2022-12-25T08:04:17.183Z,45.90
2022-12-25T08:06:43.585Z,44.63
2022-12-25T08:09:12.799Z,46.60
2022-12-25T08:11:44.005Z,42.83
2022-12-25T08:14:10.419Z,45.58
2022-12-25T08:16:41.349Z,53.50
2022-12-25T08:19:09.341Z,50.28
2022-12-25T08:21:36.152Z,50.97
2022-12-25T08:24:03.220Z,45.97
2022-12-25T08:26:29.876Z,47.63
2022-12-25T08:28:56.429Z,44.45
2022-12-25T08:31:25.916Z,44.22
2022-12-25T08:33:56.058Z,53.17
2022-12-25T08:36:23.457Z,48.38
2022-12-25T08:38:50.255Z,43.83
2022-12-25T08:41:17.719Z,50.53
2022-12-25T08:43:44.528Z,47.72
2022-12-25T08:46:11.397Z,39.67
2022-12-25T08:48:38.263Z,44.13
2022-12-25T08:51:08.116Z,37.55
2022-12-25T08:53:34.525Z,38.42
2022-12-25T08:56:04.377Z,41.55
2022-12-25T08:58:31.193Z,37.78
2022-12-25T09:00:57.708Z,40.70
2022-12-25T09:03:35.399Z,38.58
2022-12-25T09:06:10.797Z,56.08
2022-12-25T09:08:41.117Z,160.50
2022-12-25T09:11:14.477Z,237.48
2022-12-25T09:13:41.055Z,96.20
2022-12-25T09:16:09.925Z,172.35
2022-12-25T09:18:36.674Z,78.72
2022-12-25T09:21:06.635Z,68.43
2022-12-25T09:23:34.229Z,51.53
2022-12-25T09:26:02.919Z,48.55
2022-12-25T09:28:29.352Z,43.33
2022-12-25T09:30:57.527Z,43.92
2022-12-25T09:33:24.353Z,42.28
2022-12-25T09:35:54.477Z,38.92
2022-12-25T09:38:21.128Z,40.72
2022-12-25T09:40:47.683Z,40.78
2022-12-25T09:43:18.820Z,37.47
2022-12-25T09:45:45.529Z,38.75
2022-12-25T09:48:16.246Z,41.05
2022-12-25T09:51:13.106Z,37.65
2022-12-25T09:53:45.483Z,37.53
2022-12-25T09:56:16.776Z,38.05
2022-12-25T09:58:43.555Z,38.38
2022-12-25T10:01:25.662Z,39.47
2022-12-25T10:03:54.922Z,43.17
2022-12-25T10:06:31.983Z,51.38
2022-12-25T10:09:49.437Z,50.88
2022-12-25T10:12:30.940Z,46.33
2022-12-25T10:18:08.601Z,39.78
2022-12-25T10:20:56.583Z,46.67
2022-12-25T10:23:27.881Z,45.45
2022-12-25T10:25:55.280Z,45.85
2022-12-25T10:28:29.825Z,42.17
2022-12-25T10:31:01.879Z,39.30
2022-12-25T10:33:28.453Z,41.15
2022-12-25T10:35:54.931Z,46.80
2022-12-25T10:38:21.356Z,47.00
2022-12-25T10:41:05.174Z,74.03
2022-12-25T10:43:43.061Z,45.80
2022-12-25T10:46:12.437Z,42.60
2022-12-25T10:48:54.432Z,46.97
2022-12-25T10:51:29.801Z,37.17
2022-12-25T10:53:56.844Z,43.45
2022-12-25T10:56:23.769Z,41.17
2022-12-25T10:58:50.467Z,45.33
2022-12-25T11:01:17.173Z,40.35
2022-12-25T11:03:52.219Z,40.90
2022-12-25T11:06:23.935Z,43.13
2022-12-25T11:08:56.670Z,42.53
2022-12-25T11:11:24.122Z,42.78
2022-12-25T11:13:57.647Z,44.65
2022-12-25T11:16:40.071Z,36.58
2022-12-25T11:19:25.148Z,41.72
2022-12-25T11:21:54.201Z,40.95
2022-12-25T11:24:22.600Z,45.45
2022-12-25T11:27:20.203Z,43.85
2022-12-25T11:29:50.562Z,44.55
2022-12-25T11:32:41.693Z,45.03
2022-12-25T11:35:14.778Z,47.30
2022-12-25T11:37:54.084Z,45.80
2022-12-25T11:40:35.554Z,45.90
2022-12-25T11:45:46.277Z,44.33
2022-12-25T11:48:24.982Z,40.70
2022-12-25T11:50:55.756Z,44.75
2022-12-25T11:53:32.321Z,43.42
2022-12-25T11:56:06.088Z,46.88
2022-12-25T11:58:47.764Z,43.72
2022-12-25T12:01:35.369Z,43.45
2022-12-25T12:04:07.087Z,47.50
2022-12-25T12:07:16.975Z,59.53
2022-12-25T12:09:55.585Z,62.33
2022-12-25T12:13:01.140Z,47.38
2022-12-25T12:15:35.155Z,44.75
2022-12-25T12:18:27.956Z,57.97
2022-12-25T12:21:03.350Z,45.28
2022-12-25T12:23:33.239Z,43.53
2022-12-25T12:26:00.440Z,43.78
2022-12-25T12:28:32.707Z,54.53
2022-12-25T12:31:05.633Z,45.80
2022-12-25T12:33:38.899Z,41.80
2022-12-25T12:36:06.642Z,38.30
2022-12-25T12:38:35.083Z,39.85
2022-12-25T12:41:04.010Z,40.60
2022-12-25T12:43:32.460Z,41.58
2022-12-25T12:46:08.276Z,39.63
2022-12-25T12:48:41.053Z,43.45
2022-12-25T12:51:13.537Z,45.53
2022-12-25T12:53:45.358Z,41.55
2022-12-25T12:56:14.891Z,41.70
2022-12-25T12:58:50.025Z,43.42
2022-12-25T13:01:35.100Z,38.75
2022-12-25T13:04:39.247Z,42.17
2022-12-25T13:07:20.313Z,44.72
2022-12-25T13:09:52.530Z,41.30
2022-12-25T13:12:20.393Z,43.08
2022-12-25T13:14:48.081Z,42.53
2022-12-25T13:17:18.753Z,47.80
2022-12-25T13:19:46.217Z,46.13
2022-12-25T13:22:30.402Z,44.20
2022-12-25T13:25:03.045Z,46.10
2022-12-25T13:27:31.840Z,41.42
2022-12-25T13:29:58.924Z,41.40
2022-12-25T13:32:31.661Z,40.63
2022-12-25T13:34:59.400Z,43.45
2022-12-25T13:37:28.485Z,43.72
2022-12-25T13:39:57.583Z,44.33
2022-12-25T13:42:27.688Z,41.65
2022-12-25T13:44:58.331Z,43.28
2022-12-25T13:47:48.694Z,40.60
2022-12-25T13:50:23.734Z,43.38
2022-12-25T13:52:51.725Z,42.55
2022-12-25T13:55:24.453Z,45.47
2022-12-25T13:57:56.235Z,41.97
2022-12-25T14:00:25.752Z,41.28
2022-12-25T14:02:53.331Z,50.33
2022-12-25T14:05:27.389Z,43.30
2022-12-25T14:07:56.028Z,51.05
2022-12-25T14:10:26.101Z,44.65
2022-12-25T14:12:54.602Z,47.90
2022-12-25T14:15:23.235Z,57.53
2022-12-25T14:17:51.126Z,43.33
2022-12-25T14:21:04.337Z,42.53
2022-12-25T14:23:40.436Z,43.17
2022-12-25T14:26:07.310Z,43.20
2022-12-25T14:28:34.414Z,38.67
2022-12-25T14:31:02.058Z,41.33
2022-12-25T14:33:38.385Z,44.40
2022-12-25T14:36:06.966Z,41.53
2022-12-25T14:38:35.190Z,40.80
2022-12-25T14:41:22.601Z,38.75
2022-12-25T14:43:55.339Z,40.58
2022-12-25T14:46:24.659Z,43.03
2022-12-25T14:49:07.492Z,44.47
2022-12-25T14:51:38.605Z,40.92
2022-12-25T14:54:22.087Z,44.50
2022-12-25T14:56:50.914Z,50.22
2022-12-25T14:59:20.406Z,41.63
2022-12-25T15:01:52.206Z,43.40
2022-12-25T15:04:22.196Z,45.22
2022-12-25T15:07:00.475Z,41.53
2022-12-25T15:09:29.801Z,49.58
2022-12-25T15:11:56.589Z,58.05
2022-12-25T15:14:24.192Z,62.85
2022-12-25T15:16:53.757Z,55.47
2022-12-25T15:19:37.656Z,46.35
2022-12-25T15:22:09.259Z,45.45
2022-12-25T15:24:35.702Z,42.55
2022-12-25T15:27:02.221Z,44.17
2022-12-25T15:30:07.948Z,51.47
2022-12-25T15:32:19.017Z,71.53
2022-12-25T15:34:47.064Z,62.25
2022-12-25T15:37:14.493Z,54.25
2022-12-25T15:39:41.151Z,64.78
2022-12-25T15:42:16.844Z,69.03
2022-12-25T15:44:44.653Z,110.40
2022-12-25T15:47:15.994Z,110.72
2022-12-25T15:49:42.958Z,94.50
2022-12-25T15:52:14.261Z,98.22
2022-12-25T15:57:16.600Z,78.75
2022-12-25T15:59:43.144Z,72.43
2022-12-25T16:02:15.844Z,65.75
2022-12-25T16:04:42.689Z,68.57
2022-12-25T16:07:17.474Z,66.28
2022-12-25T16:09:44.286Z,54.60
2022-12-25T16:12:11.172Z,51.15
2022-12-25T16:14:37.953Z,50.65
2022-12-25T16:17:04.809Z,50.22
2022-12-25T16:19:31.758Z,54.28
2022-12-25T16:21:58.303Z,51.33
2022-12-25T16:24:24.831Z,51.22
2022-12-25T16:26:51.277Z,52.65
2022-12-25T16:29:17.749Z,51.53
2022-12-25T16:31:44.276Z,47.90
2022-12-25T16:34:10.755Z,47.83
2022-12-25T16:36:37.369Z,50.40
2022-12-25T16:39:04.793Z,55.05
2022-12-25T16:41:31.272Z,51.30
2022-12-25T16:43:57.692Z,56.13
2022-12-25T16:46:24.336Z,53.55
2022-12-25T16:48:50.748Z,58.20
2022-12-25T16:51:19.883Z,55.65
2022-12-25T16:53:46.933Z,60.50
2022-12-25T16:56:16.668Z,57.72
2022-12-25T16:58:46.522Z,63.63
2022-12-25T17:01:19.586Z,64.55
2022-12-25T17:03:47.209Z,68.30
2022-12-25T17:06:31.491Z,61.72
2022-12-25T17:09:00.151Z,61.28
2022-12-25T17:11:29.728Z,65.90
2022-12-25T17:13:57.316Z,60.33
2022-12-25T17:16:27.227Z,60.42
2022-12-25T17:18:55.248Z,61.38
2022-12-25T17:21:22.883Z,63.13
2022-12-25T17:23:49.436Z,59.53
2022-12-25T17:26:16.312Z,73.50
2022-12-25T17:28:42.759Z,63.25
2022-12-25T17:31:11.707Z,66.38
2022-12-25T17:33:40.036Z,59.70
2022-12-25T17:36:10.016Z,61.35
2022-12-25T17:38:37.272Z,61.03
2022-12-25T17:41:06.505Z,58.53
2022-12-25T17:43:34.353Z,67.78
2022-12-25T17:46:08.845Z,62.55
2022-12-25T17:48:36.227Z,61.13
2022-12-25T17:51:04.849Z,62.15
2022-12-25T17:53:31.697Z,58.67
2022-12-25T17:55:58.978Z,60.88
2022-12-25T17:58:27.035Z,59.25
2022-12-25T18:00:54.132Z,59.63
2022-12-25T18:03:21.406Z,56.10
2022-12-25T18:05:48.293Z,61.67
2022-12-25T18:08:15.284Z,63.83
2022-12-25T18:10:43.847Z,58.83
2022-12-25T18:13:11.610Z,54.28
2022-12-25T18:15:40.248Z,61.17
2022-12-25T18:18:07.777Z,56.17
2022-12-25T18:20:39.884Z,58.08
2022-12-25T18:23:07.690Z,59.10
2022-12-25T18:25:34.383Z,63.20
2022-12-25T18:28:02.687Z,59.72
2022-12-25T18:30:29.515Z,60.50
2022-12-25T18:32:55.942Z,66.25
2022-12-25T18:35:22.576Z,65.88
2022-12-25T18:37:49.104Z,61.13
2022-12-25T18:40:15.663Z,65.85
2022-12-25T18:42:43.223Z,68.05
2022-12-25T18:45:12.742Z,83.47
2022-12-25T18:47:39.177Z,65.78
2022-12-25T18:50:07.085Z,64.25
2022-12-25T18:52:47.438Z,64.20
2022-12-25T18:55:16.910Z,66.55
2022-12-25T18:57:43.340Z,64.18
2022-12-25T19:00:10.201Z,62.42
2022-12-25T19:02:36.720Z,63.70
2022-12-25T19:05:03.540Z,62.33
2022-12-25T19:07:29.943Z,64.07
2022-12-25T19:09:56.342Z,64.70
2022-12-25T19:12:23.159Z,67.45
2022-12-25T19:14:50.596Z,59.58
2022-12-25T19:17:17.874Z,61.90
2022-12-25T19:19:44.499Z,63.22
2022-12-25T19:22:10.984Z,63.95
2022-12-25T19:24:37.574Z,65.60
2022-12-25T19:27:04.575Z,60.33
2022-12-25T19:29:32.138Z,61.85
2022-12-25T19:31:58.952Z,57.33
2022-12-25T19:34:25.537Z,55.45
2022-12-25T19:36:52.128Z,59.60
2022-12-25T19:39:19.155Z,53.85
2022-12-25T19:41:45.620Z,52.75
2022-12-25T19:44:12.153Z,55.08
2022-12-25T19:46:40.728Z,53.58
2022-12-25T19:49:11.404Z,52.10
2022-12-25T19:51:43.486Z,55.28
2022-12-25T19:54:15.679Z,48.60
2022-12-25T19:56:42.637Z,50.17
2022-12-25T19:59:11.877Z,46.22
2022-12-25T20:01:39.064Z,50.97
2022-12-25T20:04:08.657Z,53.30
2022-12-25T20:06:38.147Z,51.40
2022-12-25T20:09:11.376Z,52.63
2022-12-25T20:11:38.389Z,52.05
2022-12-25T20:14:06.604Z,55.83
2022-12-25T20:16:35.861Z,55.00
2022-12-25T20:19:02.581Z,54.50
2022-12-25T20:21:29.941Z,51.45
2022-12-25T20:23:57.135Z,53.63
2022-12-25T20:26:26.315Z,53.08
2022-12-25T20:28:52.991Z,52.58
2022-12-25T20:31:27.218Z,53.78
2022-12-25T20:33:55.223Z,59.80
2022-12-25T20:36:21.976Z,55.63
2022-12-25T20:38:48.890Z,54.10
2022-12-25T20:41:28.081Z,58.25
2022-12-25T20:43:56.257Z,62.15
2022-12-25T20:46:23.203Z,57.22
2022-12-25T20:48:49.742Z,54.72
2022-12-25T20:51:18.496Z,52.78
2022-12-25T20:53:45.936Z,52.63
2022-12-25T20:56:14.212Z,53.50
2022-12-25T20:58:41.014Z,52.00
2022-12-25T21:01:11.419Z,50.65
2022-12-25T21:03:38.640Z,53.63
2022-12-25T21:06:06.213Z,53.65
2022-12-25T21:08:32.773Z,51.00
2022-12-25T21:11:01.032Z,44.20
2022-12-25T21:13:33.676Z,52.05
2022-12-25T21:16:00.392Z,52.05
2022-12-25T21:18:28.406Z,46.10
2022-12-25T21:20:59.021Z,44.65
2022-12-25T21:23:26.728Z,47.33
2022-12-25T21:25:54.361Z,44.00
2022-12-25T21:28:22.112Z,43.15
2022-12-25T21:30:48.591Z,44.17
2022-12-25T21:33:34.225Z,44.20
2022-12-25T21:36:11.369Z,44.70
2022-12-25T21:38:38.600Z,43.25
2022-12-25T21:41:07.657Z,46.42
2022-12-25T21:43:35.447Z,40.40
2022-12-25T21:46:03.977Z,41.60
2022-12-25T21:48:30.411Z,39.08
2022-12-25T21:51:23.489Z,40.00
2022-12-25T21:53:50.305Z,43.47
2022-12-25T21:56:17.098Z,41.83
2022-12-25T21:58:43.595Z,38.72
2022-12-25T22:01:11.644Z,36.58
2022-12-25T22:03:38.190Z,35.35
2022-12-25T22:06:23.502Z,32.97
2022-12-25T22:08:50.013Z,35.88
2022-12-25T22:11:35.110Z,36.03
2022-12-25T22:14:19.899Z,34.17
2022-12-25T22:17:25.856Z,35.67
2022-12-25T22:19:52.323Z,36.50
2022-12-25T22:22:21.525Z,49.90
2022-12-25T22:24:54.276Z,51.60
2022-12-25T22:27:21.683Z,70.00
2022-12-25T22:29:51.324Z,89.32
2022-12-25T22:32:18.500Z,56.97
2022-12-25T22:34:44.995Z,56.83
2022-12-25T22:37:16.174Z,94.47
2022-12-25T22:39:43.539Z,57.58
2022-12-25T22:42:10.491Z,45.42
2022-12-25T22:44:37.135Z,47.75
2022-12-25T22:47:04.253Z,73.85
2022-12-25T22:49:30.754Z,48.78
2022-12-25T22:51:57.595Z,43.38
2022-12-25T22:54:25.067Z,70.88
2022-12-25T22:56:53.205Z,45.75
2022-12-25T22:59:21.741Z,51.20
2022-12-25T23:01:49.237Z,69.22
2022-12-25T23:04:16.282Z,36.63
2022-12-25T23:06:43.923Z,33.30
2022-12-25T23:09:17.462Z,32.75
2022-12-25T23:11:46.920Z,34.72
2022-12-25T23:14:32.236Z,34.50
2022-12-25T23:16:59.451Z,35.85
2022-12-25T23:19:44.679Z,46.17
2022-12-25T23:22:30.967Z,63.47
2022-12-25T23:25:17.354Z,61.17
2022-12-25T23:27:45.444Z,65.60
2022-12-25T23:30:14.660Z,49.92
2022-12-25T23:32:42.514Z,52.60
2022-12-25T23:35:09.380Z,34.42
2022-12-25T23:37:35.777Z,32.42
2022-12-25T23:40:02.295Z,43.15
2022-12-25T23:42:28.731Z,45.00
2022-12-25T23:44:55.173Z,51.05
2022-12-25T23:47:22.637Z,48.30
2022-12-25T23:49:49.116Z,43.75
2022-12-25T23:52:15.539Z,47.40
2022-12-25T23:54:41.936Z,45.88
2022-12-25T23:57:08.470Z,41.72
2022-12-25T23:59:34.906Z,37.63
